sensor_id;sensor_type;location;lat;lon;timestamp;pressure;altitude;pressure_sealevel;temperature;humidity
79236;BME280;68666;47.460;18.812;2023-03-21T00:01:54;100260.28;;;24.43;38.67
79236;BME280;68666;47.460;18.812;2023-03-21T00:02:56;100265.31;;;24.46;38.05
79236;BME280;68666;47.460;18.812;2023-03-21T00:03:59;100264.00;;;24.50;37.93
79236;BME280;68666;47.460;18.812;2023-03-21T00:05:01;100260.66;;;24.56;37.85
79236;BME280;68666;47.460;18.812;2023-03-21T00:06:16;100256.78;;;24.59;37.49
79236;BME280;68666;47.460;18.812;2023-03-21T00:07:19;100255.75;;;24.26;37.94
79236;BME280;68666;47.460;18.812;2023-03-21T00:08:23;100258.00;;;24.04;38.78
79236;BME280;68666;47.460;18.812;2023-03-21T00:10:44;100253.44;;;23.53;40.07
79236;BME280;68666;47.460;18.812;2023-03-21T00:11:46;100245.06;;;23.38;40.30
79236;BME280;68666;47.460;18.812;2023-03-21T00:12:49;100251.16;;;23.22;40.57
79236;BME280;68666;47.460;18.812;2023-03-21T00:13:56;100248.00;;;23.09;40.89
79236;BME280;68666;47.460;18.812;2023-03-21T00:15:08;100253.94;;;22.95;41.19
79236;BME280;68666;47.460;18.812;2023-03-21T00:16:13;100246.22;;;22.82;41.38
79236;BME280;68666;47.460;18.812;2023-03-21T00:17:32;100251.28;;;22.67;41.58
79236;BME280;68666;47.460;18.812;2023-03-21T00:18:35;100251.47;;;22.56;42.16
79236;BME280;68666;47.460;18.812;2023-03-21T00:19:38;100257.06;;;22.45;42.10
79236;BME280;68666;47.460;18.812;2023-03-21T00:20:42;100257.13;;;22.35;42.74
79236;BME280;68666;47.460;18.812;2023-03-21T00:21:47;100253.63;;;22.25;42.44
79236;BME280;68666;47.460;18.812;2023-03-21T00:23:08;100250.13;;;22.15;42.94
79236;BME280;68666;47.460;18.812;2023-03-21T00:24:11;100248.97;;;22.08;43.18
79236;BME280;68666;47.460;18.812;2023-03-21T00:25:14;100250.56;;;22.00;43.55
79236;BME280;68666;47.460;18.812;2023-03-21T00:26:16;100250.47;;;21.92;43.81
79236;BME280;68666;47.460;18.812;2023-03-21T00:27:19;100247.34;;;21.87;43.96
79236;BME280;68666;47.460;18.812;2023-03-21T00:28:42;100243.56;;;21.80;43.67
79236;BME280;68666;47.460;18.812;2023-03-21T00:29:46;100244.16;;;21.74;44.35
79236;BME280;68666;47.460;18.812;2023-03-21T00:30:58;100250.81;;;21.70;44.44
79236;BME280;68666;47.460;18.812;2023-03-21T00:32:01;100245.00;;;21.65;44.19
79236;BME280;68666;47.460;18.812;2023-03-21T00:33:03;100247.16;;;21.61;44.40
79236;BME280;68666;47.460;18.812;2023-03-21T00:34:23;100239.50;;;21.57;44.76
79236;BME280;68666;47.460;18.812;2023-03-21T00:35:45;100233.75;;;21.52;44.98
79236;BME280;68666;47.460;18.812;2023-03-21T00:37:03;100246.59;;;21.48;44.75
79236;BME280;68666;47.460;18.812;2023-03-21T00:38:09;100235.31;;;21.44;45.25
79236;BME280;68666;47.460;18.812;2023-03-21T00:39:12;100234.56;;;21.42;45.34
79236;BME280;68666;47.460;18.812;2023-03-21T00:40:15;100240.25;;;21.39;45.34
79236;BME280;68666;47.460;18.812;2023-03-21T00:41:32;100234.31;;;21.36;45.20
79236;BME280;68666;47.460;18.812;2023-03-21T00:42:44;100232.75;;;21.33;45.09
79236;BME280;68666;47.460;18.812;2023-03-21T00:43:47;100232.06;;;21.31;45.42
79236;BME280;68666;47.460;18.812;2023-03-21T00:44:49;100231.34;;;21.29;45.47
79236;BME280;68666;47.460;18.812;2023-03-21T00:45:52;100233.28;;;21.27;45.87
79236;BME280;68666;47.460;18.812;2023-03-21T00:46:54;100233.44;;;21.26;46.01
79236;BME280;68666;47.460;18.812;2023-03-21T00:48:09;100231.91;;;21.23;45.54
79236;BME280;68666;47.460;18.812;2023-03-21T00:49:12;100237.28;;;21.23;45.82
79236;BME280;68666;47.460;18.812;2023-03-21T00:50:15;100232.16;;;21.20;45.81
79236;BME280;68666;47.460;18.812;2023-03-21T00:51:21;100227.78;;;21.19;46.28
79236;BME280;68666;47.460;18.812;2023-03-21T00:52:27;100228.78;;;21.18;45.92
79236;BME280;68666;47.460;18.812;2023-03-21T00:53:41;100225.41;;;21.16;46.31
79236;BME280;68666;47.460;18.812;2023-03-21T00:54:44;100224.66;;;21.14;46.21
79236;BME280;68666;47.460;18.812;2023-03-21T00:55:47;100222.97;;;21.13;46.01
79236;BME280;68666;47.460;18.812;2023-03-21T00:56:49;100227.34;;;21.14;46.01
79236;BME280;68666;47.460;18.812;2023-03-21T00:57:52;100215.91;;;21.12;46.36
79236;BME280;68666;47.460;18.812;2023-03-21T00:59:03;100223.13;;;21.11;46.11
79236;BME280;68666;47.460;18.812;2023-03-21T01:00:07;100227.66;;;21.11;46.22
79236;BME280;68666;47.460;18.812;2023-03-21T01:01:11;100226.81;;;21.10;46.46
79236;BME280;68666;47.460;18.812;2023-03-21T01:02:14;100219.91;;;21.08;46.69
79236;BME280;68666;47.460;18.812;2023-03-21T01:03:24;100221.69;;;21.07;46.85
79236;BME280;68666;47.460;18.812;2023-03-21T01:04:27;100225.38;;;21.06;46.41
79236;BME280;68666;47.460;18.812;2023-03-21T01:05:39;100222.69;;;21.06;46.75
79236;BME280;68666;47.460;18.812;2023-03-21T01:07:00;100223.00;;;21.03;47.06
79236;BME280;68666;47.460;18.812;2023-03-21T01:08:03;100223.00;;;21.03;46.49
79236;BME280;68666;47.460;18.812;2023-03-21T01:09:25;100219.47;;;21.03;46.85
79236;BME280;68666;47.460;18.812;2023-03-21T01:10:27;100223.16;;;21.02;46.75
79236;BME280;68666;47.460;18.812;2023-03-21T01:11:30;100222.31;;;21.01;46.73
79236;BME280;68666;47.460;18.812;2023-03-21T01:12:33;100218.63;;;21.02;46.67
79236;BME280;68666;47.460;18.812;2023-03-21T01:13:37;100218.03;;;20.99;47.04
79236;BME280;68666;47.460;18.812;2023-03-21T01:14:52;100226.25;;;20.97;46.62
79236;BME280;68666;47.460;18.812;2023-03-21T01:15:55;100217.19;;;20.98;47.19
79236;BME280;68666;47.460;18.812;2023-03-21T01:16:58;100219.19;;;20.96;46.82
79236;BME280;68666;47.460;18.812;2023-03-21T01:18:00;100212.13;;;20.95;47.15
79236;BME280;68666;47.460;18.812;2023-03-21T01:19:05;100215.50;;;20.97;46.77
79236;BME280;68666;47.460;18.812;2023-03-21T01:20:13;100207.59;;;20.96;47.15
79236;BME280;68666;47.460;18.812;2023-03-21T01:21:16;100217.47;;;20.95;47.04
79236;BME280;68666;47.460;18.812;2023-03-21T01:22:19;100207.75;;;20.94;46.76
79236;BME280;68666;47.460;18.812;2023-03-21T01:23:22;100211.28;;;20.95;47.17
79236;BME280;68666;47.460;18.812;2023-03-21T01:24:25;100212.25;;;20.93;46.74
79236;BME280;68666;47.460;18.812;2023-03-21T01:25:27;100212.25;;;20.93;47.48
79236;BME280;68666;47.460;18.812;2023-03-21T01:26:30;100218.59;;;20.92;46.79
79236;BME280;68666;47.460;18.812;2023-03-21T01:27:33;100214.94;;;20.93;47.04
79236;BME280;68666;47.460;18.812;2023-03-21T01:28:37;100210.53;;;20.92;46.92
79236;BME280;68666;47.460;18.812;2023-03-21T01:29:39;100206.16;;;20.91;47.28
79236;BME280;68666;47.460;18.812;2023-03-21T01:30:46;100207.84;;;20.92;46.91
79236;BME280;68666;47.460;18.812;2023-03-21T01:31:49;100207.16;;;20.90;46.97
79236;BME280;68666;47.460;18.812;2023-03-21T01:32:52;100210.84;;;20.89;47.30
79236;BME280;68666;47.460;18.812;2023-03-21T01:33:55;100210.69;;;20.91;47.53
79236;BME280;68666;47.460;18.812;2023-03-21T01:34:58;100210.84;;;20.89;47.23
79236;BME280;68666;47.460;18.812;2023-03-21T01:36:00;100212.69;;;20.89;47.57
79236;BME280;68666;47.460;18.812;2023-03-21T01:37:14;100203.78;;;20.88;47.29
79236;BME280;68666;47.460;18.812;2023-03-21T01:38:24;100206.47;;;20.88;47.59
79236;BME280;68666;47.460;18.812;2023-03-21T01:39:27;100207.44;;;20.87;47.45
79236;BME280;68666;47.460;18.812;2023-03-21T01:40:30;100210.28;;;20.86;47.30
79236;BME280;68666;47.460;18.812;2023-03-21T01:41:43;100209.28;;;20.87;47.13
79236;BME280;68666;47.460;18.812;2023-03-21T01:42:55;100211.97;;;20.87;47.32
79236;BME280;68666;47.460;18.812;2023-03-21T01:43:58;100212.09;;;20.85;47.56
79236;BME280;68666;47.460;18.812;2023-03-21T01:46:50;100209.41;;;20.85;47.52
79236;BME280;68666;47.460;18.812;2023-03-21T01:48:21;100210.41;;;20.84;47.50
79236;BME280;68666;47.460;18.812;2023-03-21T01:49:37;100209.56;;;20.84;47.29
79236;BME280;68666;47.460;18.812;2023-03-21T01:50:51;100217.75;;;20.82;47.25
79236;BME280;68666;47.460;18.812;2023-03-21T01:52:11;100214.22;;;20.82;47.38
79236;BME280;68666;47.460;18.812;2023-03-21T01:53:34;100216.06;;;20.81;47.34
79236;BME280;68666;47.460;18.812;2023-03-21T01:54:40;100206.16;;;20.82;47.55
79236;BME280;68666;47.460;18.812;2023-03-21T01:55:44;100202.63;;;20.81;47.90
79236;BME280;68666;47.460;18.812;2023-03-21T01:57:19;100215.22;;;20.81;47.54
79236;BME280;68666;47.460;18.812;2023-03-21T01:58:27;100207.31;;;20.79;47.84
79236;BME280;68666;47.460;18.812;2023-03-21T01:59:38;100208.16;;;20.80;47.83
79236;BME280;68666;47.460;18.812;2023-03-21T02:01:14;100214.53;;;20.79;47.93
79236;BME280;68666;47.460;18.812;2023-03-21T02:02:44;100203.91;;;20.77;47.58
79236;BME280;68666;47.460;18.812;2023-03-21T02:04:20;100209.16;;;20.79;47.50
79236;BME280;68666;47.460;18.812;2023-03-21T02:06:04;100210.94;;;20.78;47.76
79236;BME280;68666;47.460;18.812;2023-03-21T02:07:17;100204.75;;;20.78;47.76
79236;BME280;68666;47.460;18.812;2023-03-21T02:08:27;100213.63;;;20.78;48.11
79236;BME280;68666;47.460;18.812;2023-03-21T02:09:48;100206.72;;;20.76;48.07
79236;BME280;68666;47.460;18.812;2023-03-21T02:10:56;100212.94;;;20.76;47.84
79236;BME280;68666;47.460;18.812;2023-03-21T02:12:09;100204.03;;;20.76;48.02
79236;BME280;68666;47.460;18.812;2023-03-21T02:13:12;100212.09;;;20.76;47.98
79236;BME280;68666;47.460;18.812;2023-03-21T02:14:17;100210.41;;;20.75;47.55
79236;BME280;68666;47.460;18.812;2023-03-21T02:15:37;100210.41;;;20.75;48.09
79236;BME280;68666;47.460;18.812;2023-03-21T02:18:21;100204.19;;;20.74;47.96
79236;BME280;68666;47.460;18.812;2023-03-21T02:21:23;100209.69;;;20.73;48.19
79236;BME280;68666;47.460;18.812;2023-03-21T02:38:14;100200.50;;;20.65;48.35
79236;BME280;68666;47.460;18.812;2023-03-21T02:41:59;100201.34;;;20.66;48.19
79236;BME280;68666;47.460;18.812;2023-03-21T02:43:15;100201.50;;;20.64;48.38
79236;BME280;68666;47.460;18.812;2023-03-21T02:45:42;100203.31;;;20.64;48.36
79236;BME280;68666;47.460;18.812;2023-03-21T02:46:51;100205.16;;;20.63;48.41
79236;BME280;68666;47.460;18.812;2023-03-21T02:48:14;100208.81;;;20.62;48.56
79236;BME280;68666;47.460;18.812;2023-03-21T02:49:46;100211.38;;;20.64;48.44
79236;BME280;68666;47.460;18.812;2023-03-21T02:50:55;100211.50;;;20.62;48.48
79236;BME280;68666;47.460;18.812;2023-03-21T02:52:02;100203.47;;;20.62;48.62
79236;BME280;68666;47.460;18.812;2023-03-21T02:53:23;100203.59;;;20.61;48.43
79236;BME280;68666;47.460;18.812;2023-03-21T02:54:28;100202.59;;;20.62;48.46
79236;BME280;68666;47.460;18.812;2023-03-21T02:55:50;100203.59;;;20.61;48.49
79236;BME280;68666;47.460;18.812;2023-03-21T02:56:57;100207.28;;;20.60;48.62
79236;BME280;68666;47.460;18.812;2023-03-21T02:58:05;100203.75;;;20.59;48.68
79236;BME280;68666;47.460;18.812;2023-03-21T02:59:25;100205.59;;;20.59;48.73
79236;BME280;68666;47.460;18.812;2023-03-21T03:00:32;100208.28;;;20.59;48.58
79236;BME280;68666;47.460;18.812;2023-03-21T03:01:37;100206.44;;;20.59;48.59
79236;BME280;68666;47.460;18.812;2023-03-21T03:02:40;100203.75;;;20.59;48.26
79236;BME280;68666;47.460;18.812;2023-03-21T03:03:43;100202.06;;;20.58;48.77
79236;BME280;68666;47.460;18.812;2023-03-21T03:04:46;100204.75;;;20.58;48.73
79236;BME280;68666;47.460;18.812;2023-03-21T03:05:52;100199.38;;;20.58;48.69
79236;BME280;68666;47.460;18.812;2023-03-21T03:09:29;100209.25;;;20.58;48.75
79236;BME280;68666;47.460;18.812;2023-03-21T03:16:38;100205.00;;;20.55;48.94
79236;BME280;68666;47.460;18.812;2023-03-21T03:17:48;100200.63;;;20.54;49.12
79236;BME280;68666;47.460;18.812;2023-03-21T03:18:54;100209.53;;;20.55;48.84
79236;BME280;68666;47.460;18.812;2023-03-21T03:23:11;100206.13;;;20.53;48.86
79236;BME280;68666;47.460;18.812;2023-03-21T03:24:23;100213.34;;;20.52;49.03
79236;BME280;68666;47.460;18.812;2023-03-21T03:25:42;100212.34;;;20.53;48.91
79236;BME280;68666;47.460;18.812;2023-03-21T03:26:58;100215.88;;;20.54;48.75
79236;BME280;68666;47.460;18.812;2023-03-21T03:28:04;100207.13;;;20.52;49.05
79236;BME280;68666;47.460;18.812;2023-03-21T03:29:13;100211.66;;;20.51;48.92
79236;BME280;68666;47.460;18.812;2023-03-21T03:30:18;100209.97;;;20.50;49.02
79236;BME280;68666;47.460;18.812;2023-03-21T03:31:28;100211.66;;;20.51;49.03
79236;BME280;68666;47.460;18.812;2023-03-21T03:32:52;100218.84;;;20.51;49.14
79236;BME280;68666;47.460;18.812;2023-03-21T03:34:04;100218.00;;;20.50;49.29
79236;BME280;68666;47.460;18.812;2023-03-21T03:35:16;100215.31;;;20.50;48.98
79236;BME280;68666;47.460;18.812;2023-03-21T03:36:23;100217.16;;;20.50;49.33
79236;BME280;68666;47.460;18.812;2023-03-21T03:37:39;100214.47;;;20.50;49.28
79236;BME280;68666;47.460;18.812;2023-03-21T03:38:45;100216.28;;;20.49;49.07
79236;BME280;68666;47.460;18.812;2023-03-21T03:40:09;100211.78;;;20.50;49.30
79236;BME280;68666;47.460;18.812;2023-03-21T03:41:23;100210.91;;;20.49;49.22
79236;BME280;68666;47.460;18.812;2023-03-21T03:42:37;100209.22;;;20.48;49.30
79236;BME280;68666;47.460;18.812;2023-03-21T03:43:57;100210.22;;;20.47;49.06
79236;BME280;68666;47.460;18.812;2023-03-21T03:45:04;100202.16;;;20.47;49.32
79236;BME280;68666;47.460;18.812;2023-03-21T03:46:15;100210.22;;;20.47;49.24
79236;BME280;68666;47.460;18.812;2023-03-21T03:49:04;100217.41;;;20.47;49.21
79236;BME280;68666;47.460;18.812;2023-03-21T03:50:38;100206.69;;;20.47;49.15
79236;BME280;68666;47.460;18.812;2023-03-21T03:52:00;100211.19;;;20.46;49.30
79236;BME280;68666;47.460;18.812;2023-03-21T03:54:31;100210.50;;;20.44;49.14
79236;BME280;68666;47.460;18.812;2023-03-21T03:55:36;100208.66;;;20.45;49.29
79236;BME280;68666;47.460;18.812;2023-03-21T03:56:45;100215.00;;;20.44;49.32
79236;BME280;68666;47.460;18.812;2023-03-21T03:57:48;100215.00;;;20.44;49.44
79236;BME280;68666;47.460;18.812;2023-03-21T03:58:51;100211.47;;;20.43;49.25
79236;BME280;68666;47.460;18.812;2023-03-21T04:00:00;100215.97;;;20.43;49.56
79236;BME280;68666;47.460;18.812;2023-03-21T04:01:23;100212.41;;;20.42;49.56
79236;BME280;68666;47.460;18.812;2023-03-21T04:02:27;100216.94;;;20.42;49.45
79236;BME280;68666;47.460;18.812;2023-03-21T04:03:32;100203.53;;;20.42;49.33
79236;BME280;68666;47.460;18.812;2023-03-21T04:04:50;100201.84;;;20.41;49.62
79236;BME280;68666;47.460;18.812;2023-03-21T04:05:55;100204.38;;;20.42;49.51
79236;BME280;68666;47.460;18.812;2023-03-21T04:06:58;100208.88;;;20.42;49.52
79236;BME280;68666;47.460;18.812;2023-03-21T04:08:01;100205.38;;;20.41;49.53
79236;BME280;68666;47.460;18.812;2023-03-21T04:09:11;100204.50;;;20.41;49.53
79236;BME280;68666;47.460;18.812;2023-03-21T04:10:25;100203.66;;;20.40;49.58
79236;BME280;68666;47.460;18.812;2023-03-21T04:11:28;100205.50;;;20.39;49.80
79236;BME280;68666;47.460;18.812;2023-03-21T04:12:31;100202.81;;;20.39;49.50
79236;BME280;68666;47.460;18.812;2023-03-21T04:13:53;100204.66;;;20.39;49.77
79236;BME280;68666;47.460;18.812;2023-03-21T04:14:57;100208.19;;;20.39;49.74
79236;BME280;68666;47.460;18.812;2023-03-21T04:16:13;100208.34;;;20.38;49.82
79236;BME280;68666;47.460;18.812;2023-03-21T04:17:17;100207.50;;;20.37;49.76
79236;BME280;68666;47.460;18.812;2023-03-21T04:18:22;100203.97;;;20.37;49.71
79236;BME280;68666;47.460;18.812;2023-03-21T04:19:25;100206.63;;;20.37;49.96
79236;BME280;68666;47.460;18.812;2023-03-21T04:20:28;100212.84;;;20.37;49.70
79236;BME280;68666;47.460;18.812;2023-03-21T04:21:38;100214.69;;;20.37;50.12
79236;BME280;68666;47.460;18.812;2023-03-21T04:22:42;100215.53;;;20.37;49.75
79236;BME280;68666;47.460;18.812;2023-03-21T04:23:45;100213.84;;;20.36;49.93
79236;BME280;68666;47.460;18.812;2023-03-21T04:24:47;100212.84;;;20.37;49.79
79236;BME280;68666;47.460;18.812;2023-03-21T04:25:50;100205.78;;;20.36;50.04
79236;BME280;68666;47.460;18.812;2023-03-21T04:27:08;100213.00;;;20.36;49.68
79236;BME280;68666;47.460;18.812;2023-03-21T04:28:15;100206.78;;;20.35;49.97
79236;BME280;68666;47.460;18.812;2023-03-21T04:29:26;100204.09;;;20.35;49.88
79236;BME280;68666;47.460;18.812;2023-03-21T04:30:34;100202.38;;;20.34;50.10
79236;BME280;68666;47.460;18.812;2023-03-21T04:31:41;100203.38;;;20.33;49.89
79236;BME280;68666;47.460;18.812;2023-03-21T04:32:46;100203.38;;;20.33;49.88
79236;BME280;68666;47.460;18.812;2023-03-21T04:34:03;100197.00;;;20.34;49.89
79236;BME280;68666;47.460;18.812;2023-03-21T04:35:13;100203.38;;;20.33;49.90
79236;BME280;68666;47.460;18.812;2023-03-21T04:36:16;100200.69;;;20.33;50.04
79236;BME280;68666;47.460;18.812;2023-03-21T04:37:28;100199.84;;;20.33;50.07
79236;BME280;68666;47.460;18.812;2023-03-21T04:38:31;100197.31;;;20.31;50.20
79236;BME280;68666;47.460;18.812;2023-03-21T04:39:37;100197.31;;;20.31;50.13
79236;BME280;68666;47.460;18.812;2023-03-21T04:40:40;100199.97;;;20.31;50.11
79236;BME280;68666;47.460;18.812;2023-03-21T04:41:44;100201.81;;;20.31;49.97
79236;BME280;68666;47.460;18.812;2023-03-21T04:42:47;100205.34;;;20.31;50.11
79236;BME280;68666;47.460;18.812;2023-03-21T04:43:50;100198.28;;;20.30;49.98
79236;BME280;68666;47.460;18.812;2023-03-21T04:44:54;100201.81;;;20.31;50.19
79236;BME280;68666;47.460;18.812;2023-03-21T04:45:58;100195.59;;;20.30;50.19
79236;BME280;68666;47.460;18.812;2023-03-21T04:47:01;100190.38;;;20.29;50.08
79236;BME280;68666;47.460;18.812;2023-03-21T04:48:03;100195.59;;;20.30;50.22
79236;BME280;68666;47.460;18.812;2023-03-21T04:49:06;100200.97;;;20.30;50.06
79236;BME280;68666;47.460;18.812;2023-03-21T04:50:10;100194.91;;;20.28;50.05
79236;BME280;68666;47.460;18.812;2023-03-21T04:51:15;100193.78;;;20.31;50.04
79236;BME280;68666;47.460;18.812;2023-03-21T04:52:18;100198.28;;;20.30;50.26
79236;BME280;68666;47.460;18.812;2023-03-21T04:53:21;100198.28;;;20.30;50.22
79236;BME280;68666;47.460;18.812;2023-03-21T04:54:24;100206.34;;;20.30;50.04
79236;BME280;68666;47.460;18.812;2023-03-21T04:55:27;100206.34;;;20.30;50.31
79236;BME280;68666;47.460;18.812;2023-03-21T04:56:32;100206.34;;;20.30;50.12
79236;BME280;68666;47.460;18.812;2023-03-21T04:57:38;100207.31;;;20.29;49.74
79236;BME280;68743;47.460;18.812;2023-03-21T04:58:41;100206.34;;;20.30;50.28
79236;BME280;68743;47.460;18.812;2023-03-21T04:59:43;100213.41;;;20.31;50.84
79236;BME280;68743;47.460;18.812;2023-03-21T05:00:46;100213.25;;;20.33;50.74
79236;BME280;68743;47.460;18.812;2023-03-21T05:01:49;100207.88;;;20.33;51.02
79236;BME280;68743;47.460;18.812;2023-03-21T05:02:52;100215.78;;;20.34;51.35
79236;BME280;68743;47.460;18.812;2023-03-21T05:03:57;100209.72;;;20.32;51.15
79236;BME280;68743;47.460;18.812;2023-03-21T05:05:00;100211.41;;;20.33;51.31
79236;BME280;68743;47.460;18.812;2023-03-21T05:06:08;100214.09;;;20.33;50.93
79236;BME280;68743;47.460;18.812;2023-03-21T05:07:11;100223.84;;;20.34;51.28
79236;BME280;68743;47.460;18.812;2023-03-21T05:08:14;100220.31;;;20.34;51.02
79236;BME280;68743;47.460;18.812;2023-03-21T05:09:17;100223.84;;;20.34;51.15
79236;BME280;68743;47.460;18.812;2023-03-21T05:10:20;100219.47;;;20.33;51.24
79236;BME280;68743;47.460;18.812;2023-03-21T05:11:22;100222.00;;;20.35;51.34
79236;BME280;68743;47.460;18.812;2023-03-21T05:12:25;100229.22;;;20.34;51.31
79236;BME280;68743;47.460;18.812;2023-03-21T05:13:28;100226.41;;;20.36;51.55
79236;BME280;68743;47.460;18.812;2023-03-21T05:14:30;100232.72;;;20.35;51.33
79236;BME280;68743;47.460;18.812;2023-03-21T05:15:33;100234.56;;;20.34;51.20
79236;BME280;68743;47.460;18.812;2023-03-21T05:16:38;100237.00;;;20.37;51.07
79236;BME280;68743;47.460;18.812;2023-03-21T05:17:51;100224.56;;;20.36;50.59
79236;BME280;68743;47.460;18.812;2023-03-21T05:18:53;100231.63;;;20.37;50.86
79236;BME280;68743;47.460;18.812;2023-03-21T05:19:56;100236.16;;;20.37;50.87
79236;BME280;68743;47.460;18.812;2023-03-21T05:20:59;100224.56;;;20.36;51.06
79236;BME280;68743;47.460;18.812;2023-03-21T05:22:09;100232.47;;;20.38;51.04
79236;BME280;68743;47.460;18.812;2023-03-21T05:23:13;100233.31;;;20.38;50.97
79236;BME280;68743;47.460;18.812;2023-03-21T05:24:20;100226.25;;;20.37;50.92
79236;BME280;68743;47.460;18.812;2023-03-21T05:25:24;100228.94;;;20.37;51.34
79236;BME280;68743;47.460;18.812;2023-03-21T05:26:44;100231.50;;;20.39;51.10
79236;BME280;68743;47.460;18.812;2023-03-21T05:27:53;100226.97;;;20.39;50.92
79236;BME280;68743;47.460;18.812;2023-03-21T05:29:00;100228.81;;;20.39;50.84
79236;BME280;68743;47.460;18.812;2023-03-21T05:30:07;100229.66;;;20.39;51.01
79236;BME280;68743;47.460;18.812;2023-03-21T05:31:11;100226.13;;;20.39;51.13
79236;BME280;68743;47.460;18.812;2023-03-21T05:32:18;100232.19;;;20.41;51.09
79236;BME280;68743;47.460;18.812;2023-03-21T05:33:20;100225.97;;;20.41;51.50
79236;BME280;68743;47.460;18.812;2023-03-21T05:34:24;100229.50;;;20.41;51.04
79236;BME280;68743;47.460;18.812;2023-03-21T05:35:27;100229.50;;;20.41;51.51
79236;BME280;68743;47.460;18.812;2023-03-21T05:36:32;100229.50;;;20.41;51.42
79236;BME280;68743;47.460;18.812;2023-03-21T05:37:40;100229.41;;;20.43;51.36
79236;BME280;68743;47.460;18.812;2023-03-21T05:38:43;100230.34;;;20.42;51.19
79236;BME280;68743;47.460;18.812;2023-03-21T05:39:48;100230.34;;;20.42;50.98
79236;BME280;68743;47.460;18.812;2023-03-21T05:40:57;100239.25;;;20.42;51.00
79236;BME280;68743;47.460;18.812;2023-03-21T05:42:00;100235.72;;;20.42;50.84
79236;BME280;68743;47.460;18.812;2023-03-21T05:43:02;100239.25;;;20.42;51.08
79236;BME280;68743;47.460;18.812;2023-03-21T05:44:05;100230.25;;;20.43;51.29
79236;BME280;68743;47.460;18.812;2023-03-21T05:45:08;100240.13;;;20.43;51.05
79236;BME280;68743;47.460;18.812;2023-03-21T05:46:12;100238.28;;;20.43;50.99
79236;BME280;68743;47.460;18.812;2023-03-21T05:47:16;100245.50;;;20.43;51.03
79236;BME280;68743;47.460;18.812;2023-03-21T05:48:21;100236.56;;;20.42;50.97
79236;BME280;68743;47.460;18.812;2023-03-21T05:49:43;100247.19;;;20.44;51.15
79236;BME280;68743;47.460;18.812;2023-03-21T05:50:46;100238.28;;;20.43;51.05
79236;BME280;68743;47.460;18.812;2023-03-21T05:51:53;100236.47;;;20.44;50.95
79236;BME280;68743;47.460;18.812;2023-03-21T05:52:55;100240.97;;;20.43;50.97
79236;BME280;68743;47.460;18.812;2023-03-21T05:53:58;100238.28;;;20.43;51.09
79236;BME280;68743;47.460;18.812;2023-03-21T05:55:00;100236.47;;;20.44;51.09
79236;BME280;68743;47.460;18.812;2023-03-21T05:56:03;100239.13;;;20.44;50.83
79236;BME280;68743;47.460;18.812;2023-03-21T05:57:26;100236.47;;;20.44;51.04
79236;BME280;68743;47.460;18.812;2023-03-21T05:58:36;100231.97;;;20.44;51.14
79236;BME280;68743;47.460;18.812;2023-03-21T05:59:39;100233.78;;;20.44;51.05
79236;BME280;68743;47.460;18.812;2023-03-21T06:00:42;100235.50;;;20.45;51.28
79236;BME280;68743;47.460;18.812;2023-03-21T06:01:59;100230.13;;;20.45;51.29
79236;BME280;68743;47.460;18.812;2023-03-21T06:03:01;100236.34;;;20.45;51.02
79236;BME280;68743;47.460;18.812;2023-03-21T06:04:39;100232.81;;;20.45;51.01
79236;BME280;68743;47.460;18.812;2023-03-21T06:05:42;100233.50;;;20.47;51.11
79236;BME280;68743;47.460;18.812;2023-03-21T06:06:52;100232.66;;;20.46;51.14
79236;BME280;68743;47.460;18.812;2023-03-21T06:07:57;100229.84;;;20.48;50.96
79236;BME280;68743;47.460;18.812;2023-03-21T06:09:00;100236.19;;;20.47;51.26
79236;BME280;68743;47.460;18.812;2023-03-21T06:10:04;100237.03;;;20.47;51.22
79236;BME280;68743;47.460;18.812;2023-03-21T06:11:19;100237.03;;;20.47;51.43
79236;BME280;68743;47.460;18.812;2023-03-21T06:12:26;100225.47;;;20.47;51.38
79236;BME280;68743;47.460;18.812;2023-03-21T06:13:49;100238.03;;;20.46;51.27
79236;BME280;68743;47.460;18.812;2023-03-21T06:14:52;100237.03;;;20.47;51.63
79236;BME280;68743;47.460;18.812;2023-03-21T06:16:01;100235.22;;;20.48;51.42
79236;BME280;68743;47.460;18.812;2023-03-21T06:17:07;100231.53;;;20.49;51.20
79236;BME280;68743;47.460;18.812;2023-03-21T06:18:15;100235.06;;;20.49;52.01
79236;BME280;68743;47.460;18.812;2023-03-21T06:19:38;100232.38;;;20.49;51.62
79236;BME280;68743;47.460;18.812;2023-03-21T06:20:45;100234.09;;;20.50;51.69
79236;BME280;68743;47.460;18.812;2023-03-21T06:21:48;100233.97;;;20.52;51.63
79236;BME280;68743;47.460;18.812;2023-03-21T06:22:51;100237.63;;;20.51;51.42
79236;BME280;68743;47.460;18.812;2023-03-21T06:23:53;100232.13;;;20.52;51.34
79236;BME280;68743;47.460;18.812;2023-03-21T06:24:57;100236.66;;;20.52;51.25
79236;BME280;68743;47.460;18.812;2023-03-21T06:25:59;100232.97;;;20.53;51.16
79236;BME280;68743;47.460;18.812;2023-03-21T06:27:02;100232.13;;;20.52;51.38
79236;BME280;68743;47.460;18.812;2023-03-21T06:28:16;100230.28;;;20.53;51.27
79236;BME280;68743;47.460;18.812;2023-03-21T06:29:19;100233.81;;;20.53;51.63
79236;BME280;68743;47.460;18.812;2023-03-21T06:30:24;100233.81;;;20.53;51.54
79236;BME280;68743;47.460;18.812;2023-03-21T06:31:39;100237.19;;;20.55;51.42
79236;BME280;68743;47.460;18.812;2023-03-21T06:32:42;100241.72;;;20.55;51.69
79236;BME280;68743;47.460;18.812;2023-03-21T06:33:49;100239.75;;;20.57;51.50